Home > Products > Valid Products > MTR

000
SAUS41 KPHI 061055
MTRACY
METAR KACY 061054Z 09003KT 7SM CLR 22/21 A3014 RMK AO2 SLP207
T02170206 $





000
SAUS41 KPHI 061055
MTR12N
METAR K12N 061054Z AUTO 00000KT 17/17 A3018 RMK AO1 SLP212 T01720167





000
SAUS41 KPHI 060955
MTRACY
METAR KACY 060954Z 00000KT 8SM CLR 21/19 A3015 RMK AO2 SLP209
T02060189 $





000
SAUS41 KPHI 060955
MTR12N
METAR K12N 060954Z AUTO 00000KT 16/16 A3016 RMK AO1 SLP208 T01610156





000
SAUS41 KPHI 060855
MTRACY
METAR KACY 060854Z 00000KT 10SM CLR 20/18 A3014 RMK AO2 SLP206
T02000183 58002 $





000
SAUS41 KPHI 060855
MTR12N
METAR K12N 060854Z AUTO 00000KT 16/16 A3016 RMK AO1 SLP206 T01610156
56003





000
SAUS41 KPHI 060755
MTR12N
METAR K12N 060754Z AUTO 00000KT 16/16 A3016 RMK AO1 SLP207 T01610156





000
SAUS41 KPHI 060755
MTRACY
METAR KACY 060754Z 00000KT 8SM OVC090 20/18 A3015 RMK AO2 SLP208
T02000183 $





000
SAUS41 KPHI 060655
MTR12N
METAR K12N 060654Z AUTO 00000KT 17/16 A3016 RMK AO1 SLP208 T01670161





000
SAUS41 KPHI 060655
MTRACY
METAR KACY 060654Z 00000KT 10SM SCT085 19/18 A3015 RMK AO2 SLP207
T01940183 $





000
SAUS41 KPHI 060555
MTR12N
METAR K12N 060554Z AUTO 00000KT 17/17 A3017 RMK AO1 SLP209 T01720167
10228 20167 50002





000
SAUS41 KPHI 060555
MTRACY
METAR KACY 060554Z 00000KT 10SM CLR 21/19 A3015 RMK AO2 SLP207
T02110194 10239 20206 58003 $





000
SAUS41 KPHI 060555
MTR12N
METAR K12N 060554Z AUTO 00000KT 17/17 A3017 RMK AO1 SLP209 T01720167
10228 20167 50002





000
SAUS41 KPHI 060555
MTRACY
METAR KACY 060554Z 00000KT 10SM CLR 21/19 A3015 RMK AO2 SLP207
T02110194 10239 20206 58003 $





000
SAUS41 KPHI 060455
MTRACY
METAR KACY 060454Z 00000KT 10SM CLR 22/20 A3015 RMK AO2 SLP209
T02220200 402720189 $





000
SAUS41 KPHI 060455
MTR12N
METAR K12N 060454Z AUTO 00000KT 17/17 A3017 RMK AO1 SLP210 T01720167
402720150





000
SAUS41 KPHI 060355
MTRACY
METAR KACY 060354Z 00000KT 10SM CLR 23/19 A3016 RMK AO2 SLP211
T02280194 $





000
SAUS41 KPHI 060355
MTRACY
METAR KACY 060354Z 00000KT 10SM CLR 23/19 A3016 RMK AO2 SLP211
T02280194 $





000
SAUS41 KPHI 060355
MTR12N
METAR K12N 060354Z AUTO 00000KT 18/17 A3017 RMK AO1 SLP209 T01780167





000
SAUS41 KPHI 060255
MTRACY
METAR KACY 060254Z AUTO 17004KT 10SM CLR 22/20 A3016 RMK AO2 SLP211
T02220200 51007 TSNO $





000
SAUS41 KPHI 060255
MTR12N
METAR K12N 060254Z AUTO 00000KT 18/17 A3016 RMK AO1 SLP208 T01830172
53010





000
SAUS41 KPHI 060255
MTRACY
METAR KACY 060254Z AUTO 17004KT 10SM CLR 22/20 A3016 RMK AO2 SLP211
T02220200 51007 TSNO $





000
SAUS41 KPHI 060255
MTR12N
METAR K12N 060254Z AUTO 00000KT 18/17 A3016 RMK AO1 SLP208 T01830172
53010





000
SAUS41 KPHI 060155
MTRACY
METAR KACY 060154Z AUTO 16003KT 10SM CLR 23/19 A3015 RMK AO2 SLP208
T02280194 TSNO $





000
SAUS41 KPHI 060155
MTR12N
METAR K12N 060154Z AUTO 00000KT 19/18 A3016 RMK AO1 SLP206 T01940183





000
SAUS41 KPHI 060155
MTR12N
METAR K12N 060154Z AUTO 00000KT 19/18 A3016 RMK AO1 SLP206 T01940183





000
SAUS41 KPHI 060155
MTRACY
METAR KACY 060154Z AUTO 16003KT 10SM CLR 23/19 A3015 RMK AO2 SLP208
T02280194 TSNO $





000
SAUS41 KPHI 060055
MTR12N
METAR K12N 060054Z AUTO 00000KT 21/19 A3013 RMK AO1 SLP200 T02060194





000
SAUS41 KPHI 060055
MTRACY
METAR KACY 060054Z AUTO 18005KT 10SM CLR 23/19 A3015 RMK AO2 SLP209
T02330189 TSNO $





000
SAUS41 KPHI 052355
MTR12N
METAR K12N 052354Z AUTO 00000KT 23/19 A3013 RMK AO1 SLP198 T02280189
10272 20228 53004





000
SAUS41 KPHI 052355
MTRACY
METAR KACY 052354Z AUTO 18005KT 10SM CLR 24/18 A3014 RMK AO2 SLP204
T02390183 10272 20239 53002 TSNO $





000
SAUS41 KPHI 052255
MTR12N
METAR K12N 052254Z AUTO 00000KT 25/19 A3013 RMK AO1 SLP196 T02500189





000
SAUS41 KPHI 052255
MTRACY
METAR KACY 052254Z AUTO 21008KT 10SM CLR 25/18 A3012 RMK AO2 SLP200
T02500183 TSNO $





000
SAUS41 KPHI 052155
MTR12N
METAR K12N 052154Z AUTO 22004KT 26/17 A3012 RMK AO1 SLP195 T02610172





000
SAUS41 KPHI 052155
MTR12N
METAR K12N 052154Z AUTO 22004KT 26/17 A3012 RMK AO1 SLP195 T02610172





000
SAUS41 KPHI 052155
MTRACY
METAR KACY 052154Z AUTO 19009KT 10SM CLR 26/17 A3012 RMK AO2 SLP200
T02560172 TSNO $





000
SAUS41 KPHI 052155
MTRACY
METAR KACY 052154Z AUTO 19009KT 10SM CLR 26/17 A3012 RMK AO2 SLP200
T02560172 TSNO $





000
SAUS41 KPHI 052055
MTRACY
METAR KACY 052054Z AUTO 16010KT 10SM CLR 26/18 A3013 RMK AO2 SLP201
T02610178 56004 TSNO $





000
SAUS41 KPHI 052055
MTR12N
METAR K12N 052054Z AUTO 23006KT 27/17 A3012 RMK AO1 SLP193 T02670172
56010





000
SAUS41 KPHI 051955
MTR12N
METAR K12N 051954Z AUTO VRB03KT 26/17 A3013 RMK AO1 SLP196 T02610167





000
SAUS41 KPHI 051955
MTRACY
METAR KACY 051954Z 18008KT 10SM CLR 26/18 A3013 RMK AO2 SLP201
T02610178 $





000
SAUS41 KPHI 051855
MTRACY
METAR KACY 051854Z 16010KT 10SM SCT034 27/18 A3013 RMK AO2 SLP203
T02670178 $





000
SAUS41 KPHI 051855
MTR12N
METAR K12N 051854Z AUTO 00000KT 26/16 A3014 RMK AO1 SLP198 T02560161





000
SAUS41 KPHI 051755
MTRACY
METAR KACY 051754Z 16005KT 10SM BKN034 27/18 A3014 RMK AO2 SLP205
T02670178 10267 20217 58005 $





000
SAUS41 KPHI 051755
MTR12N
METAR K12N 051754Z AUTO 00000KT 26/15 A3015 RMK AO1 SLP203 T02560150
10267 20178 55004





000
SAUS41 KPHI 051755
MTRACY
METAR KACY 051754Z 16005KT 10SM BKN034 27/18 A3014 RMK AO2 SLP205
T02670178 10267 20217 58005 $





000
SAUS41 KPHI 051755
MTR12N
METAR K12N 051754Z AUTO 00000KT 26/15 A3015 RMK AO1 SLP203 T02560150
10267 20178 55004





000
SAUS41 KPHI 051655
MTR12N
METAR K12N 051654Z AUTO 25/16 A3015 RMK AO1 SLP204 T02500161





000
SAUS41 KPHI 051655
MTRACY
METAR KACY 051654Z 16007KT 10SM BKN035 26/18 A3014 RMK AO2 SLP207
T02610178 $





000
SAUS41 KPHI 051555
MTR12N
METAR K12N 051554Z AUTO VRB03KT 24/18 A3015 RMK AO1 SLP205 T02440183





000
SAUS41 KPHI 051555
MTRACY
METAR KACY 051554Z 16004KT 10SM OVC032 26/18 A3015 RMK AO2 SLP210
T02560178 $





000
SAUS41 KPHI 051455
MTRACY
METAR KACY 051454Z 25003KT 10SM CLR 26/17 A3015 RMK AO2 SLP210
T02610172 51011 $





000
SAUS41 KPHI 051455
MTR12N
METAR K12N 051454Z AUTO VRB03KT 21/17 A3016 RMK AO1 SLP209 T02110167
50009





000
SAUS41 KPHI 051355
MTR12N
METAR K12N 051354Z AUTO 00000KT 20/17 A3017 RMK AO1 SLP211 T02000167





000
SAUS41 KPHI 051355
MTRACY
METAR KACY 051354Z 00000KT 10SM CLR 24/16 A3014 RMK AO2 SLP207
T02440161 $





000
SAUS41 KPHI 051355
MTR12N
METAR K12N 051354Z AUTO 00000KT 20/17 A3017 RMK AO1 SLP211 T02000167





000
SAUS41 KPHI 051355
MTRACY
METAR KACY 051354Z 00000KT 10SM CLR 24/16 A3014 RMK AO2 SLP207
T02440161 $





000
SAUS41 KPHI 051255
MTR12N
METAR K12N 051254Z AUTO VRB05KT 18/16 A3016 RMK AO1 SLP209 T01830161





000
SAUS41 KPHI 051255
MTRACY
METAR KACY 051254Z 00000KT 10SM CLR 23/17 A3014 RMK AO2 SLP204
T02330172 $





000
SAUS41 KPHI 051155
MTR12N
METAR K12N 051154Z AUTO 00000KT 18/16 A3013 RMK AO1 SLP199 70020
T01780161 10178 20150 53015





000
SAUS41 KPHI 051155
MTRACY
METAR KACY 051154Z 00000KT 10SM BKN031 22/16 A3012 RMK AO2 SLP199
T02170161 10217 20189 52019 $





000
SAUS41 KPHI 051055
MTRACY
METAR KACY 051054Z 00000KT 10SM CLR 19/17 A3010 RMK AO2 SLP194
T01940167 $





000
SAUS41 KPHI 051055
MTR12N
METAR K12N 051054Z AUTO 00000KT 16/16 A3011 RMK AO1 SLP192 T01560156





000
SAUS41 KPHI 050955
MTR12N
METAR K12N 050954Z AUTO 00000KT 15/14 A3009 RMK AO1 SLP186 T01500144





000
SAUS41 KPHI 050955
MTRACY
METAR KACY 050954Z AUTO 00000KT 10SM OVC049 19/17 A3008 RMK AO2
SLP185 T01940167 TSNO $





000
SAUS41 KPHI 050955
MTRACY
METAR KACY 050954Z AUTO 00000KT 10SM OVC049 19/17 A3008 RMK AO2
SLP185 T01940167 TSNO $





000
SAUS41 KPHI 050955
MTR12N
METAR K12N 050954Z AUTO 00000KT 15/14 A3009 RMK AO1 SLP186 T01500144





000
SAUS41 KPHI 050855
MTRACY
METAR KACY 050854Z AUTO 00000KT 10SM OVC049 19/17 A3006 RMK AO2
SLP180 T01940172 53008 TSNO $





000
SAUS41 KPHI 050855
MTRACY
METAR KACY 050854Z AUTO 00000KT 10SM OVC049 19/17 A3006 RMK AO2
SLP180 T01940172 53008 TSNO $





000
SAUS41 KPHI 050855
MTR12N
METAR K12N 050854Z AUTO 00000KT 15/14 A3009 RMK AO1 SLP183 T01500144
53007





000
SAUS41 KPHI 050755
MTR12N
METAR K12N 050754Z AUTO 00000KT 16/16 A3007 RMK AO1 SLP179 T01610156





000
SAUS41 KPHI 050755
MTRACY
METAR KACY 050754Z AUTO 00000KT 10SM OVC043 19/17 A3005 RMK AO2
SLP176 T01940172 TSNO $





000
SAUS41 KPHI 050655
MTRACY
METAR KACY 050654Z AUTO 00000KT 10SM FEW044 OVC065 19/17 A3004 RMK
AO2 SLP171 T01940167 TSNO $





000
SAUS41 KPHI 050655
MTR12N
METAR K12N 050654Z AUTO 00000KT 17/16 A3007 RMK AO1 SLP178 T01670161





000
SAUS41 KPHI 050655
MTRACY
METAR KACY 050654Z AUTO 00000KT 10SM FEW044 OVC065 19/17 A3004 RMK
AO2 SLP171 T01940167 TSNO $





000
SAUS41 KPHI 050655
MTR12N
METAR K12N 050654Z AUTO 00000KT 17/16 A3007 RMK AO1 SLP178 T01670161





000
SAUS41 KPHI 050555
MTR12N
METAR K12N 050554Z AUTO 00000KT 17/16 A3006 RMK AO1 SLP176 T01670161
10194 20150 50008





000
SAUS41 KPHI 050555
MTR12N
METAR K12N 050554Z AUTO 00000KT 17/16 A3006 RMK AO1 SLP176 T01670161
10194 20150 50008





000
SAUS41 KPHI 050555
MTRACY
METAR KACY 050554Z AUTO 35004KT 10SM BKN044 OVC060 19/17 A3004 RMK
AO2 SLP172 T01940167 10217 20194 51011 TSNO $





000
SAUS41 KPHI 050555
MTRACY
METAR KACY 050554Z AUTO 35004KT 10SM BKN044 OVC060 19/17 A3004 RMK
AO2 SLP172 T01940167 10217 20194 51011 TSNO $





000
SAUS41 KPHI 050456
MTR12N
METAR K12N 050454Z AUTO 00000KT 16/16 A3007 RMK AO1 SLP177 T01610156
402220150





000
SAUS41 KPHI 050455
MTRACY
METAR KACY 050454Z 00000KT 10SM OVC055 19/17 A3004 RMK AO2 SLP172
T01940167 402670194 $





000
SAUS41 KPHI 050355
MTRACY
METAR KACY 050354Z 00000KT 10SM SCT050 20/16 A3002 RMK AO2 SLP164
T02000161 $





000
SAUS41 KPHI 050355
MTR12N
METAR K12N 050354Z AUTO 00000KT 16/15 A3005 RMK AO1 SLP172 T01560150





000
SAUS41 KPHI 050355
MTR12N
METAR K12N 050354Z AUTO 00000KT 16/15 A3005 RMK AO1 SLP172 T01560150





000
SAUS41 KPHI 050355
MTRACY
METAR KACY 050354Z 00000KT 10SM SCT050 20/16 A3002 RMK AO2 SLP164
T02000161 $





000
SAUS41 KPHI 050255
MTR12N
METAR K12N 050254Z AUTO 00000KT 16/15 A3004 RMK AO1 SLP169 T01610150
53014





000
SAUS41 KPHI 050255
MTRACY
METAR KACY 050254Z 05004KT 10SM BKN036 OVC047 21/16 A3001 RMK AO2
SLP161 T02110156 51015 $





000
SAUS41 KPHI 050255
MTR12N
METAR K12N 050254Z AUTO 00000KT 16/15 A3004 RMK AO1 SLP169 T01610150
53014





000
SAUS41 KPHI 050155
MTR12N
METAR K12N 050154Z AUTO 00000KT 16/16 A3002 RMK AO1 SLP163 T01610156





000
SAUS41 KPHI 050155
MTRACY
METAR KACY 050154Z 07004KT 10SM OVC040 21/16 A3001 RMK AO2 SLP160
T02110156 $





000
SAUS41 KPHI 050055
MTR12N
METAR K12N 050054Z AUTO 00000KT 17/16 A3000 RMK AO1 SLP156 T01720161





000
SAUS41 KPHI 050055
MTRACY
METAR KACY 050054Z 00000KT 10SM FEW039 BKN065 BKN080 21/16 A2998 RMK
AO2 SLP153 T02110156 $





000
SAUS41 KPHI 042355
MTR12N
METAR K12N 042354Z AUTO 00000KT 19/17 A3000 RMK AO1 SLP153 T01940167
10222 20189 53009





000
SAUS41 KPHI 042355
MTRACY
METAR KACY 042354Z 07004KT 10SM BKN090 22/16 A2996 RMK AO2 SLP146
T02170156 10267 20217 51015 $





000
SAUS41 KPHI 042255
MTRACY
METAR KACY 042254Z 09008KT 10SM BKN042 23/16 A2995 RMK AO2 SLP141
T02280161 $





000
SAUS41 KPHI 042255
MTR12N
METAR K12N 042254Z AUTO 00000KT 21/16 A2998 RMK AO1 SLP148 T02060161





000
SAUS41 KPHI 042155
MTR12N
METAR K12N 042154Z AUTO 35003KT 21/17 A2997 RMK AO1 SLP144 T02110167





000
SAUS41 KPHI 042155
MTRACY
METAR KACY 042154Z 06008KT 10SM FEW049 24/15 A2993 RMK AO2 SLP136
T02440150 $





000
SAUS41 KPHI 042055
MTRACY
METAR KACY 042054Z 10011KT 10SM FEW050 25/16 A2992 RMK AO2 SLP131
T02500156 53001 $





000
SAUS41 KPHI 042055
MTRACY
METAR KACY 042054Z 10011KT 10SM FEW050 25/16 A2992 RMK AO2 SLP131
T02500156 53001 $





000
SAUS41 KPHI 042055
MTR12N
METAR K12N 042054Z AUTO 00000KT 22/17 A2997 RMK AO1 SLP142 T02170167
56006





000
SAUS41 KPHI 041955
MTRACY
METAR KACY 041954Z 06010KT 10SM CLR 26/17 A2991 RMK AO2 SLP128
T02610172 $





000
SAUS41 KPHI 041955
MTR12N
METAR K12N 041954Z AUTO VRB04KT 22/17 A2997 RMK AO1 SLP142 T02170167





000
SAUS41 KPHI 041855
MTR12N
METAR K12N 041854Z AUTO VRB03KT 21/17 A2998 RMK AO1 SLP147 T02060167





000
SAUS41 KPHI 041855
MTRACY
METAR KACY 041854Z 07009KT 10SM FEW032 FEW050 SCT120 25/18 A2991 RMK
AO2 SLP127 T02500178 $





000
SAUS41 KPHI 041855
MTR12N
METAR K12N 041854Z AUTO VRB03KT 21/17 A2998 RMK AO1 SLP147 T02060167





000
SAUS41 KPHI 041855
MTRACY
METAR KACY 041854Z 07009KT 10SM FEW032 FEW050 SCT120 25/18 A2991 RMK
AO2 SLP127 T02500178 $





000
SAUS41 KPHI 041755
MTRACY
METAR KACY 041754Z 07009KT 10SM FEW032 26/17 A2992 RMK AO2 SLP130
T02560172 10267 20228 51004 $





000
SAUS41 KPHI 041755
MTR12N
METAR K12N 041754Z AUTO 04005KT 19/17 A2999 RMK AO1 SLP149 P0001
60020 T01940167 10194 20167 58007





000
SAUS41 KPHI 041755
MTRACY
METAR KACY 041754Z 07009KT 10SM FEW032 26/17 A2992 RMK AO2 SLP130
T02560172 10267 20228 51004 $





000
SAUS41 KPHI 041755
MTR12N
METAR K12N 041754Z AUTO 04005KT 19/17 A2999 RMK AO1 SLP149 P0001
60020 T01940167 10194 20167 58007





000
SAUS41 KPHI 041655
MTR12N
METAR K12N 041654Z AUTO 00000KT 18/16 A3000 RMK AO1 SLP155 T01830161





000
SAUS41 KPHI 041655
MTRACY
METAR KACY 041654Z 06011KT 10SM SCT026 SCT034 BKN060 26/18 A2991 RMK
AO2 SLP129 T02560183 $





000
SAUS41 KPHI 041655
MTRACY
METAR KACY 041654Z 06011KT 10SM SCT026 SCT034 BKN060 26/18 A2991 RMK
AO2 SLP129 T02560183 $





000
SAUS41 KPHI 041655
MTR12N
METAR K12N 041654Z AUTO 00000KT 18/16 A3000 RMK AO1 SLP155 T01830161





000
SAUS41 KPHI 041555
MTR12N
METAR K12N 041554Z AUTO VRB03KT 18/16 A3000 RMK AO1 SLP153 P0010
T01780161





000
SAUS41 KPHI 041555
MTRACY
METAR KACY 041554Z 06009KT 10SM FEW022 SCT035 OVC050 24/19 A2991 RMK
AO2 SLP128 T02440189 $





000
SAUS41 KPHI 041455
MTRACY
METAR KACY 041454Z 06011KT 10SM SCT022 BKN048 OVC080 24/19 A2990 RMK
AO2 SLP126 T02440189 51004 $





000
SAUS41 KPHI 041455
MTR12N
METAR K12N 041454Z AUTO VRB03KT 17/16 A3001 RMK AO1 SLP157 P0009
60009 T01670156 53014





000
SAUS41 KPHI 041402 COR
MTR12N
METAR K12N 041354Z AUTO 36005KT 18/16 A2999 RMK AO1 SLP151 T01830161





000
SAUS41 KPHI 041400 COR
MTR12N
METAR K12N 041354Z AUTO 36005KT 18/16 A2999 RMK AO1 SLP151 T01830161





000
SAUS41 KPHI 041400 COR
MTR12N
METAR K12N 041354Z AUTO 36005KT 18/16 A2999 RMK AO1 SLP151 T01830161





000
SAUS41 KPHI 041358 COR
MTR12N
METAR K12N 041354Z AUTO 36005KT 18/16 A2999 RMK AO1 SLP151 T01830161





000
SAUS41 KPHI 041356
MTR12N
METAR K12N 041354Z AUTO 36005KT 18/16 A2999 RMK AO1 SLP151 T01830161





000
SAUS41 KPHI 041356
MTR12N
METAR K12N 041354Z AUTO 36005KT 18/16 A2999 RMK AO1 SLP151 T01830161





000
SAUS41 KPHI 041355
MTRACY
METAR KACY 041354Z 08013G18KT 10SM FEW020 24/19 A2990 RMK AO2 SLP124
T02390189 $





000
SAUS41 KPHI 041355
MTRACY
METAR KACY 041354Z 08013G18KT 10SM FEW020 24/19 A2990 RMK AO2 SLP124
T02390189 $





000
SAUS41 KPHI 041255
MTRACY
METAR KACY 041254Z 08010KT 10SM SCT090 24/19 A2990 RMK AO2 SLP125
T02390189 $





000
SAUS41 KPHI 041255
MTR12N
METAR K12N 041254Z AUTO VRB03KT 18/16 A2997 RMK AO1 SLP145 T01830161





000
SAUS41 KPHI 041255
MTRACY
METAR KACY 041254Z 08010KT 10SM SCT090 24/19 A2990 RMK AO2 SLP125
T02390189 $





000
SAUS41 KPHI 041255
MTR12N
METAR K12N 041254Z AUTO VRB03KT 18/16 A2997 RMK AO1 SLP145 T01830161





000
SAUS41 KPHI 041156
MTR12N
METAR K12N 041154Z AUTO 04003KT 18/16 A2996 RMK AO1 SLP142 P0001
60001 70001 T01780161 10194 20178 53002





000
SAUS41 KPHI 041155
MTRACY
METAR KACY 041154Z AUTO 08008KT 10SM BKN110 23/19 A2989 RMK AO2
SLP122 T02280194 10228 20206 56006 TSNO $





000
SAUS41 KPHI 041055
MTRACY
METAR KACY 041054Z AUTO 09006KT 10SM OVC110 22/20 A2990 RMK AO2
SLP124 T02170200 TSNO $





000
SAUS41 KPHI 041055
MTR12N
METAR K12N 041054Z AUTO 05003KT 18/17 A2996 RMK AO1 SLP140 T01830167





000
SAUS41 KPHI 041055
MTR12N
METAR K12N 041054Z AUTO 05003KT 18/17 A2996 RMK AO1 SLP140 T01830167





000
SAUS41 KPHI 041055
MTRACY
METAR KACY 041054Z AUTO 09006KT 10SM OVC110 22/20 A2990 RMK AO2
SLP124 T02170200 TSNO $





000
SAUS41 KPHI 040955
MTRACY
METAR KACY 040954Z 09006KT 8SM FEW110 21/19 A2990 RMK AO2 SLP124
T02110194 $





000
SAUS41 KPHI 040955
MTR12N
METAR K12N 040954Z AUTO 00000KT 18/17 A2996 RMK AO1 SLP139 T01830167





000
SAUS41 KPHI 040855
MTR12N
METAR K12N 040854Z AUTO 00000KT 19/15 A2996 RMK AO1 SLP137 T01940150
58006





000
SAUS41 KPHI 040855
MTRACY
METAR KACY 040854Z 09005KT 10SM FEW080 BKN100 21/19 A2991 RMK AO2
SLP128 T02110194 58013 $





000
SAUS41 KPHI 040855
MTRACY
METAR KACY 040854Z 09005KT 10SM FEW080 BKN100 21/19 A2991 RMK AO2
SLP128 T02110194 58013 $





000
SAUS41 KPHI 040855
MTR12N
METAR K12N 040854Z AUTO 00000KT 19/15 A2996 RMK AO1 SLP137 T01940150
58006





000
SAUS41 KPHI 040755
MTR12N
METAR K12N 040754Z AUTO 00000KT 19/16 A2997 RMK AO1 SLP140 T01940161





000
SAUS41 KPHI 040755
MTRACY
METAR KACY 040754Z 11003KT 10SM BKN120 21/19 A2993 RMK AO2 SLP135
T02060194 $





000
SAUS41 KPHI 040655
MTR12N
METAR K12N 040654Z AUTO 00000KT 18/17 A2997 RMK AO1 SLP142 T01830172





000
SAUS41 KPHI 040655
MTRACY
METAR KACY 040654Z 07003KT 10SM CLR 21/19 A2994 RMK AO2 SLP139
T02060189 $





000
SAUS41 KPHI 040555
MTR12N
METAR K12N 040554Z AUTO 00000KT 18/17 A2998 RMK AO1 SLP144 T01830172
10211 20172 58001





000
SAUS41 KPHI 040555
MTRACY
METAR KACY 040554Z 11004KT 10SM FEW110 21/19 A2995 RMK AO2 SLP141
T02110189 10222 20206 58008 $





000
SAUS41 KPHI 040455
MTR12N
METAR K12N 040454Z AUTO 00000KT 18/17 A2998 RMK AO1 SLP146 T01780167
402610128





000
SAUS41 KPHI 040455
MTRACY
METAR KACY 040454Z 13005KT 10SM FEW110 22/19 A2996 RMK AO2 SLP145
T02170189 402610161 $





000
SAUS41 KPHI 040355
MTRACY
METAR KACY 040354Z 12003KT 10SM CLR 21/19 A2997 RMK AO2 SLP148
T02110189 $





000
SAUS41 KPHI 040355
MTR12N
METAR K12N 040354Z AUTO 00000KT 18/17 A2998 RMK AO1 SLP145 T01830167





000
SAUS41 KPHI 040255
MTR12N
METAR K12N 040254Z AUTO 00000KT 18/16 A2998 RMK AO1 SLP146 T01780161
53004





000
SAUS41 KPHI 040255
MTRACY
METAR KACY 040254Z 12004KT 10SM CLR 21/18 A2997 RMK AO2 SLP149
T02060183 50002 $





000
SAUS41 KPHI 040255
MTRACY
METAR KACY 040254Z 12004KT 10SM CLR 21/18 A2997 RMK AO2 SLP149
T02060183 50002 $





000
SAUS41 KPHI 040155
MTRACY
METAR KACY 040154Z 12003KT 10SM CLR 21/18 A2998 RMK AO2 SLP150
T02060178 $





000
SAUS41 KPHI 040155
MTR12N
METAR K12N 040154Z AUTO 00000KT 18/16 A2998 RMK AO1 SLP146 T01830161





000
SAUS41 KPHI 040155
MTR12N
METAR K12N 040154Z AUTO 00000KT 18/16 A2998 RMK AO1 SLP146 T01830161





000
SAUS41 KPHI 040155
MTRACY
METAR KACY 040154Z 12003KT 10SM CLR 21/18 A2998 RMK AO2 SLP150
T02060178 $





000
SAUS41 KPHI 040055
MTR12N
METAR K12N 040054Z AUTO 00000KT 19/17 A2996 RMK AO1 SLP141 T01940167





000
SAUS41 KPHI 040055
MTRACY
METAR KACY 040054Z 15003KT 10SM CLR 22/17 A2997 RMK AO2 SLP148
T02170172 $





000
SAUS41 KPHI 032355
MTRACY
METAR KACY 032354Z 16006KT 10SM CLR 22/17 A2997 RMK AO2 SLP147
T02220167 10261 20222 58002 $





000
SAUS41 KPHI 032355
MTR12N
METAR K12N 032354Z AUTO 00000KT 21/17 A2997 RMK AO1 SLP143 T02110172
10261 20211 55002





000
SAUS41 KPHI 032255
MTRACY
METAR KACY 032254Z 16006KT 10SM CLR 23/17 A2998 RMK AO2 SLP151
T02280167 $





000
SAUS41 KPHI 032255
MTR12N
METAR K12N 032254Z AUTO 00000KT 23/17 A2996 RMK AO1 SLP142 T02280167





000
SAUS41 KPHI 032155
MTRACY
METAR KACY 032154Z 17007KT 10SM CLR 23/16 A2997 RMK AO2 SLP149
T02330161 $





000
SAUS41 KPHI 032155
MTR12N
METAR K12N 032154Z AUTO 23004KT 25/14 A2997 RMK AO1 SLP143 T02500144





000
SAUS41 KPHI 032055
MTRACY
METAR KACY 032054Z 17006KT 10SM CLR 24/16 A2997 RMK AO2 SLP149
T02390156 58008 $





000
SAUS41 KPHI 032055
MTR12N
METAR K12N 032054Z AUTO 23003KT 25/13 A2997 RMK AO1 SLP146 T02500128
56009





000
SAUS41 KPHI 031955
MTRACY
METAR KACY 031954Z 17007KT 130V200 10SM CLR 25/16 A2998 RMK AO2
SLP152 T02500156 $





000
SAUS41 KPHI 031955
MTR12N
METAR K12N 031954Z AUTO 00000KT 26/13 A2998 RMK AO1 SLP147 T02560128





000
SAUS41 KPHI 031855
MTR12N
METAR K12N 031854Z AUTO VRB03KT 26/12 A2999 RMK AO1 SLP151 T02560122





000
SAUS41 KPHI 031855
MTRACY
METAR KACY 031854Z 14008KT 10SM CLR 26/16 A2999 RMK AO2 SLP156
T02560156 $





000
SAUS41 KPHI 031755
MTRACY
METAR KACY 031754Z 13005KT 10SM CLR 24/16 A3000 RMK AO2 SLP158
T02440161 10256 20200 58002 $





000
SAUS41 KPHI 031755
MTR12N
METAR K12N 031754Z AUTO VRB03KT 24/11 A3000 RMK AO1 SLP154 T02440111
10250 20167 56006





000
SAUS41 KPHI 031755
MTR12N
METAR K12N 031754Z AUTO VRB03KT 24/11 A3000 RMK AO1 SLP154 T02440111
10250 20167 56006





000
SAUS41 KPHI 031755
MTRACY
METAR KACY 031754Z 13005KT 10SM CLR 24/16 A3000 RMK AO2 SLP158
T02440161 10256 20200 58002 $





000
SAUS41 KPHI 031655
MTR12N
METAR K12N 031654Z AUTO 36004KT 24/11 A3001 RMK AO1 SLP155 T02390106





000
SAUS41 KPHI 031655
MTRACY
METAR KACY 031654Z 10004KT 10SM CLR 25/16 A3001 RMK AO2 SLP160
T02500156 $





000
SAUS41 KPHI 031556
MTRACY
METAR KACY 031554Z 10005KT 10SM CLR 24/18 A3000 RMK AO2 SLP160
T02440178 $





000
SAUS41 KPHI 031555
MTR12N
METAR K12N 031554Z AUTO 04004KT 23/11 A3002 RMK AO1 SLP158 T02280111





000
SAUS41 KPHI 031455
MTRACY
METAR KACY 031454Z 07005KT 9SM SCT019 24/18 A3000 RMK AO2 SLP159
T02390183 51016 $





000
SAUS41 KPHI 031455
MTR12N
METAR K12N 031454Z AUTO 03004KT 22/11 A3002 RMK AO1 SLP160 T02170111
51004





000
SAUS41 KPHI 031455
MTRACY
METAR KACY 031454Z 07005KT 9SM SCT019 24/18 A3000 RMK AO2 SLP159
T02390183 51016 $





000
SAUS41 KPHI 031420
MTRACY
SPECI KACY 031419Z 06007KT 7SM BKN015 23/19 A2999 RMK AO2 T02330189
$





000
SAUS41 KPHI 031356
MTRACY
METAR KACY 031354Z 04007KT 6SM HZ FEW014 23/19 A2999 RMK AO2 SLP155
T02330189 $





000
SAUS41 KPHI 031355
MTR12N
METAR K12N 031354Z AUTO 36004KT 20/11 A3002 RMK AO1 SLP159 T02000111





000
SAUS41 KPHI 031255
MTR12N
METAR K12N 031254Z AUTO VRB05KT 18/12 A3002 RMK AO1 SLP162 T01830117





000
SAUS41 KPHI 031255
MTRACY
METAR KACY 031254Z 04005KT 6SM HZ CLR 22/19 A2997 RMK AO2 SLP149
T02170189 $





000
SAUS41 KPHI 031155
MTR12N
METAR K12N 031154Z AUTO VRB04KT 17/13 A3001 RMK AO1 SLP157 T01720128
10172 20128 51019





000
SAUS41 KPHI 031155
MTRACY
METAR KACY 031154Z 01004KT 7SM CLR 20/17 A2996 RMK AO2 SLP144 70080
T02000172 10200 20161 51015 $





000
SAUS41 KPHI 031155
MTRACY
METAR KACY 031154Z 01004KT 7SM CLR 20/17 A2996 RMK AO2 SLP144 70080
T02000172 10200 20161 51015 $





000
SAUS41 KPHI 031155
MTR12N
METAR K12N 031154Z AUTO VRB04KT 17/13 A3001 RMK AO1 SLP157 T01720128
10172 20128 51019





    US Dept of Commerce
    National Oceanic and Atmospheric Administration
    National Weather Service
    1325 East West Highway
    Silver Spring, MD 20910
    Page Author: NWS Internet Services Team
Disclaimer
Information Quality
Credits
Glossary
Privacy Policy
Freedom of Information Act (FOIA)
About Us
Career Opportunities